sensor_id;sensor_type;location;lat;lon;timestamp;pressure;altitude;pressure_sealevel;temperature;humidity
41250;BME280;26984;59.928;30.306;2022-12-29T00:01:01;100990.47;;;1.01;100.00
41250;BME280;26984;59.928;30.306;2022-12-29T00:03:29;100985.84;;;1.03;100.00
41250;BME280;26984;59.928;30.306;2022-12-29T00:05:56;100990.44;;;1.11;100.00
41250;BME280;26984;59.928;30.306;2022-12-29T00:08:25;100994.47;;;1.15;100.00
41250;BME280;26984;59.928;30.306;2022-12-29T00:11:05;100997.91;;;1.25;100.00
41250;BME280;26984;59.928;30.306;2022-12-29T00:13:33;100993.28;;;1.27;100.00
41250;BME280;26984;59.928;30.306;2022-12-29T00:16:17;100997.28;;;1.41;100.00
41250;BME280;26984;59.928;30.306;2022-12-29T00:18:44;100998.56;;;1.37;100.00
41250;BME280;26984;59.928;30.306;2022-12-29T00:21:13;101000.50;;;1.35;100.00
41250;BME280;26984;59.928;30.306;2022-12-29T00:23:58;101006.50;;;1.37;100.00
41250;BME280;26984;59.928;30.306;2022-12-29T00:26:49;101001.66;;;1.32;100.00
41250;BME280;26984;59.928;30.306;2022-12-29T00:29:37;101000.75;;;1.41;100.00
41250;BME280;26984;59.928;30.306;2022-12-29T00:32:33;101008.06;;;1.39;100.00
41250;BME280;26984;59.928;30.306;2022-12-29T00:35:20;101008.50;;;1.53;100.00
41250;BME280;26984;59.928;30.306;2022-12-29T00:37:50;101010.34;;;1.52;100.00
41250;BME280;26984;59.928;30.306;2022-12-29T00:40:50;101015.34;;;1.55;100.00
41250;BME280;26984;59.928;30.306;2022-12-29T00:43:34;101016.88;;;1.58;100.00
41250;BME280;26984;59.928;30.306;2022-12-29T00:46:19;101021.69;;;1.72;100.00
41250;BME280;26984;59.928;30.306;2022-12-29T00:48:46;101022.44;;;1.64;100.00
41250;BME280;26984;59.928;30.306;2022-12-29T00:51:31;101021.25;;;1.77;100.00
41250;BME280;26984;59.928;30.306;2022-12-29T00:53:58;101018.50;;;1.68;100.00
41250;BME280;26984;59.928;30.306;2022-12-29T00:56:27;101018.25;;;1.62;100.00
41250;BME280;26984;59.928;30.306;2022-12-29T00:58:54;101022.34;;;1.56;100.00
41250;BME280;26984;59.928;30.306;2022-12-29T01:01:22;101020.13;;;1.52;100.00
41250;BME280;26984;59.928;30.306;2022-12-29T01:03:49;101022.25;;;1.48;100.00
41250;BME280;26984;59.928;30.306;2022-12-29T01:06:19;101020.63;;;1.37;100.00
41250;BME280;26984;59.928;30.306;2022-12-29T01:08:46;101016.22;;;1.28;100.00
41250;BME280;26984;59.928;30.306;2022-12-29T01:11:35;101009.66;;;1.23;100.00
41250;BME280;26984;59.928;30.306;2022-12-29T01:14:01;101011.50;;;1.12;100.00
41250;BME280;26984;59.928;30.306;2022-12-29T01:16:30;101009.59;;;1.05;100.00
41250;BME280;26984;59.928;30.306;2022-12-29T01:18:57;101005.66;;;1.09;100.00
41250;BME280;26984;59.928;30.306;2022-12-29T01:21:25;101011.44;;;1.32;100.00
41250;BME280;26984;59.928;30.306;2022-12-29T01:23:52;101016.00;;;1.39;100.00
41250;BME280;26984;59.928;30.306;2022-12-29T01:26:20;101009.41;;;1.43;100.00
41250;BME280;26984;59.928;30.306;2022-12-29T01:28:49;101007.97;;;1.49;100.00
41250;BME280;26984;59.928;30.306;2022-12-29T01:31:16;101012.13;;;1.61;100.00
41250;BME280;26984;59.928;30.306;2022-12-29T01:33:43;101017.06;;;1.74;100.00
41250;BME280;26984;59.928;30.306;2022-12-29T01:36:12;101018.28;;;1.80;100.00
41250;BME280;26984;59.928;30.306;2022-12-29T01:38:40;101023.25;;;1.92;100.00
41250;BME280;26984;59.928;30.306;2022-12-29T01:41:07;101029.09;;;1.96;100.00
41250;BME280;26984;59.928;30.306;2022-12-29T01:43:39;101028.47;;;2.02;100.00
41250;BME280;26984;59.928;30.306;2022-12-29T01:46:09;101029.31;;;2.03;100.00
41250;BME280;26984;59.928;30.306;2022-12-29T01:48:42;101018.59;;;1.95;100.00
41250;BME280;26984;59.928;30.306;2022-12-29T01:51:09;101022.63;;;1.99;100.00
41250;BME280;26984;59.928;30.306;2022-12-29T01:53:37;101016.72;;;1.87;100.00
41250;BME280;26984;59.928;30.306;2022-12-29T01:56:05;101021.31;;;1.85;100.00
41250;BME280;26984;59.928;30.306;2022-12-29T01:58:35;101017.47;;;1.79;100.00
41250;BME280;26984;59.928;30.306;2022-12-29T02:01:04;101028.69;;;1.73;100.00
41250;BME280;26984;59.928;30.306;2022-12-29T02:03:36;101027.97;;;1.53;100.00
41250;BME280;26984;59.928;30.306;2022-12-29T02:06:05;101026.88;;;1.46;100.00
41250;BME280;26984;59.928;30.306;2022-12-29T02:08:37;101033.06;;;1.37;100.00
41250;BME280;26984;59.928;30.306;2022-12-29T02:11:05;101026.94;;;1.36;100.00
41250;BME280;26984;59.928;30.306;2022-12-29T02:13:34;101024.41;;;1.35;100.00
41250;BME280;26984;59.928;30.306;2022-12-29T02:16:04;101024.72;;;1.32;100.00
41250;BME280;26984;59.928;30.306;2022-12-29T02:18:40;101030.91;;;1.13;100.00
41250;BME280;26984;59.928;30.306;2022-12-29T02:26:44;101022.88;;;0.95;100.00
41250;BME280;26984;59.928;30.306;2022-12-29T02:29:27;101029.81;;;1.15;100.00
41250;BME280;26984;59.928;30.306;2022-12-29T02:32:05;101029.72;;;0.98;100.00
41250;BME280;26984;59.928;30.306;2022-12-29T02:34:36;101032.75;;;1.03;100.00
41250;BME280;26984;59.928;30.306;2022-12-29T02:37:11;101040.84;;;1.11;100.00
41250;BME280;26984;59.928;30.306;2022-12-29T02:39:42;101026.56;;;1.22;100.00
41250;BME280;26984;59.928;30.306;2022-12-29T02:42:12;101033.81;;;1.29;100.00
41250;BME280;26984;59.928;30.306;2022-12-29T02:44:44;101029.66;;;1.44;100.00
41250;BME280;26984;59.928;30.306;2022-12-29T02:47:17;101026.06;;;1.63;100.00
41250;BME280;26984;59.928;30.306;2022-12-29T02:49:49;101026.44;;;1.78;100.00
41250;BME280;26984;59.928;30.306;2022-12-29T02:52:20;101024.22;;;1.91;100.00
41250;BME280;26984;59.928;30.306;2022-12-29T02:54:50;101024.41;;;2.08;100.00
41250;BME280;26984;59.928;30.306;2022-12-29T02:57:27;101022.63;;;2.16;100.00
41250;BME280;26984;59.928;30.306;2022-12-29T02:59:55;101029.53;;;2.27;100.00
41250;BME280;26984;59.928;30.306;2022-12-29T03:02:29;101033.72;;;2.30;100.00
41250;BME280;26984;59.928;30.306;2022-12-29T03:05:09;101036.31;;;2.22;100.00
41250;BME280;26984;59.928;30.306;2022-12-29T03:07:40;101036.31;;;2.22;100.00
41250;BME280;26984;59.928;30.306;2022-12-29T03:10:15;101034.19;;;2.25;100.00
41250;BME280;26984;59.928;30.306;2022-12-29T03:12:46;101034.72;;;2.29;99.25
41250;BME280;26984;59.928;30.306;2022-12-29T03:15:33;101041.78;;;2.20;97.12
41250;BME280;26984;59.928;30.306;2022-12-29T03:18:21;101051.97;;;2.07;100.00
41250;BME280;26984;59.928;30.306;2022-12-29T03:20:51;101044.81;;;2.07;99.59
41250;BME280;26984;59.928;30.306;2022-12-29T03:23:22;101046.47;;;2.08;100.00
41250;BME280;26984;59.928;30.306;2022-12-29T03:25:53;101038.59;;;2.16;100.00
41250;BME280;26984;59.928;30.306;2022-12-29T03:28:23;101044.13;;;2.23;98.73
41250;BME280;26984;59.928;30.306;2022-12-29T03:30:53;101042.53;;;2.30;97.47
41250;BME280;26984;59.928;30.306;2022-12-29T03:33:25;101042.94;;;2.18;97.69
41250;BME280;26984;59.928;30.306;2022-12-29T03:35:55;101034.25;;;2.15;99.48
41250;BME280;26984;59.928;30.306;2022-12-29T03:38:27;101033.97;;;2.19;99.11
41250;BME280;26984;59.928;30.306;2022-12-29T03:40:59;101045.28;;;2.21;99.75
41250;BME280;26984;59.928;30.306;2022-12-29T03:43:29;101041.03;;;2.28;96.76
41250;BME280;26984;59.928;30.306;2022-12-29T03:45:57;101042.84;;;2.27;95.34
41250;BME280;26984;59.928;30.306;2022-12-29T03:48:25;101037.75;;;2.16;97.10
41250;BME280;26984;59.928;30.306;2022-12-29T03:50:55;101037.75;;;2.16;98.23
41250;BME280;26984;59.928;30.306;2022-12-29T03:53:22;101035.50;;;2.21;98.41
41250;BME280;26984;59.928;30.306;2022-12-29T03:55:50;101033.06;;;2.28;96.54
41250;BME280;26984;59.928;30.306;2022-12-29T03:58:17;101033.72;;;2.30;96.81
41250;BME280;26984;59.928;30.306;2022-12-29T04:00:56;101030.84;;;2.23;97.20
41250;BME280;26984;59.928;30.306;2022-12-29T04:03:23;101028.56;;;2.10;98.16
41250;BME280;26984;59.928;30.306;2022-12-29T04:05:52;101031.97;;;2.03;98.32
41250;BME280;26984;59.928;30.306;2022-12-29T04:08:20;101031.38;;;2.09;97.95
41250;BME280;26984;59.928;30.306;2022-12-29T04:10:48;101036.38;;;2.12;97.20
41250;BME280;26984;59.928;30.306;2022-12-29T04:13:20;101025.81;;;2.20;97.73
41250;BME280;26984;59.928;30.306;2022-12-29T04:15:47;101033.25;;;2.34;96.71
41250;BME280;26984;59.928;30.306;2022-12-29T04:18:15;101033.34;;;2.43;97.11
41250;BME280;26984;59.928;30.306;2022-12-29T04:20:44;101037.50;;;2.45;96.46
41250;BME280;26984;59.928;30.306;2022-12-29T04:23:33;101036.38;;;2.48;96.77
41250;BME280;26984;59.928;30.306;2022-12-29T04:26:02;101037.72;;;2.52;95.83
41250;BME280;26984;59.928;30.306;2022-12-29T04:28:30;101043.06;;;2.52;96.56
41250;BME280;26984;59.928;30.306;2022-12-29T04:31:23;101043.28;;;2.58;95.59
41250;BME280;26984;59.928;30.306;2022-12-29T04:33:50;101030.97;;;2.57;96.75
41250;BME280;26984;59.928;30.306;2022-12-29T04:36:17;101037.66;;;2.61;96.90
41250;BME280;26984;59.928;30.306;2022-12-29T04:38:46;101035.88;;;2.70;95.15
41250;BME280;26984;59.928;30.306;2022-12-29T04:41:14;101033.44;;;2.77;95.14
41250;BME280;26984;59.928;30.306;2022-12-29T04:43:41;101029.47;;;2.81;94.30
41250;BME280;26984;59.928;30.306;2022-12-29T04:46:30;101036.69;;;2.88;92.44
41250;BME280;26984;59.928;30.306;2022-12-29T04:49:08;101034.69;;;2.91;92.16
41250;BME280;26984;59.928;30.306;2022-12-29T04:51:47;101027.72;;;2.90;93.76
41250;BME280;26984;59.928;30.306;2022-12-29T04:54:18;101031.56;;;2.95;92.59
41250;BME280;26984;59.928;30.306;2022-12-29T04:56:53;101036.22;;;2.93;92.05
41250;BME280;26984;59.928;30.306;2022-12-29T04:59:20;101040.06;;;2.99;91.93
41250;BME280;26984;59.928;30.306;2022-12-29T05:01:50;101040.06;;;2.99;91.63
41250;BME280;26984;59.928;30.306;2022-12-29T05:04:17;101034.06;;;2.97;91.68
41250;BME280;26984;59.928;30.306;2022-12-29T05:06:44;101040.72;;;2.93;93.72
41250;BME280;26984;59.928;30.306;2022-12-29T05:09:12;101032.03;;;2.91;94.43
41250;BME280;26984;59.928;30.306;2022-12-29T05:11:41;101038.56;;;2.96;94.10
41250;BME280;26984;59.928;30.306;2022-12-29T05:14:09;101034.91;;;2.97;93.89
41250;BME280;26984;59.928;30.306;2022-12-29T05:16:37;101039.59;;;3.03;91.70
41250;BME280;26984;59.928;30.306;2022-12-29T05:19:05;101037.47;;;3.07;90.83
41250;BME280;26984;59.928;30.306;2022-12-29T05:21:33;101045.16;;;3.10;90.96
41250;BME280;26984;59.928;30.306;2022-12-29T05:24:00;101040.75;;;3.01;92.20
41250;BME280;26984;59.928;30.306;2022-12-29T05:26:28;101044.09;;;3.03;92.44
41250;BME280;26984;59.928;30.306;2022-12-29T05:29:09;101043.63;;;3.07;92.83
41250;BME280;26984;59.928;30.306;2022-12-29T05:31:36;101039.47;;;3.13;91.74
41250;BME280;26984;59.928;30.306;2022-12-29T05:34:05;101045.34;;;3.17;91.45
41250;BME280;26984;59.928;30.306;2022-12-29T05:36:32;101047.00;;;3.18;89.07
41250;BME280;26984;59.928;30.306;2022-12-29T05:39:01;101043.34;;;3.19;88.68
41250;BME280;26984;59.928;30.306;2022-12-29T05:41:29;101048.25;;;3.05;89.71
41250;BME280;26984;59.928;30.306;2022-12-29T05:43:59;101042.28;;;3.03;91.55
41250;BME280;26984;59.928;30.306;2022-12-29T05:46:30;101044.25;;;3.01;90.32
41250;BME280;26984;59.928;30.306;2022-12-29T05:49:24;101051.09;;;3.04;90.81
41250;BME280;26984;59.928;30.306;2022-12-29T05:52:04;101043.44;;;3.09;91.09
41250;BME280;26984;59.928;30.306;2022-12-29T05:54:33;101044.75;;;3.05;91.16
41250;BME280;26984;59.928;30.306;2022-12-29T05:57:01;101050.09;;;3.05;90.32
41250;BME280;26984;59.928;30.306;2022-12-29T05:59:30;101046.75;;;3.03;90.57
41250;BME280;26984;59.928;30.306;2022-12-29T06:01:58;101052.59;;;3.06;91.17
41250;BME280;26984;59.928;30.306;2022-12-29T06:04:26;101054.47;;;3.14;89.31
41250;BME280;26984;59.928;30.306;2022-12-29T06:06:53;101047.13;;;3.08;90.50
41250;BME280;26984;59.928;30.306;2022-12-29T06:09:29;101057.19;;;2.96;92.08
41250;BME280;26984;59.928;30.306;2022-12-29T06:11:57;101053.75;;;3.04;90.93
41250;BME280;26984;59.928;30.306;2022-12-29T06:14:25;101057.28;;;3.12;90.01
41250;BME280;26984;59.928;30.306;2022-12-29T06:16:52;101065.06;;;3.06;90.23
41250;BME280;26984;59.928;30.306;2022-12-29T06:19:22;101057.75;;;3.08;89.96
41250;BME280;26984;59.928;30.306;2022-12-29T06:21:50;101057.25;;;3.04;91.37
41250;BME280;26984;59.928;30.306;2022-12-29T06:24:18;101058.13;;;3.13;90.33
41250;BME280;26984;59.928;30.306;2022-12-29T06:26:46;101062.59;;;3.12;89.68
41250;BME280;26984;59.928;30.306;2022-12-29T06:29:14;101058.06;;;3.05;91.18
41250;BME280;26984;59.928;30.306;2022-12-29T06:31:43;101047.63;;;3.11;90.55
41250;BME280;26984;59.928;30.306;2022-12-29T06:34:11;101053.22;;;3.00;90.77
41250;BME280;26984;59.928;30.306;2022-12-29T06:36:40;101060.31;;;2.92;91.96
41250;BME280;26984;59.928;30.306;2022-12-29T06:39:08;101053.50;;;2.89;92.57
41250;BME280;26984;59.928;30.306;2022-12-29T06:41:35;101054.94;;;2.83;92.52
41250;BME280;26984;59.928;30.306;2022-12-29T06:44:21;101052.28;;;2.83;93.16
41250;BME280;26984;59.928;30.306;2022-12-29T06:46:50;101054.00;;;2.93;93.37
41250;BME280;26984;59.928;30.306;2022-12-29T06:49:18;101053.38;;;2.99;93.63
41250;BME280;26984;59.928;30.306;2022-12-29T06:51:46;101053.22;;;3.00;93.00
41250;BME280;26984;59.928;30.306;2022-12-29T06:54:14;101057.25;;;3.04;92.05
41250;BME280;26984;59.928;30.306;2022-12-29T06:56:41;101058.75;;;3.07;93.24
41250;BME280;26984;59.928;30.306;2022-12-29T06:59:09;101060.72;;;3.05;93.57
41250;BME280;26984;59.928;30.306;2022-12-29T07:01:36;101056.63;;;3.10;92.61
41250;BME280;26984;59.928;30.306;2022-12-29T07:04:03;101054.09;;;3.09;91.07
41250;BME280;26984;59.928;30.306;2022-12-29T07:06:31;101056.97;;;2.90;92.63
41250;BME280;26984;59.928;30.306;2022-12-29T07:08:59;101054.09;;;2.83;93.42
41250;BME280;26984;59.928;30.306;2022-12-29T07:11:27;101061.34;;;2.73;94.02
41250;BME280;26984;59.928;30.306;2022-12-29T07:13:54;101074.59;;;2.64;95.22
41250;BME280;26984;59.928;30.306;2022-12-29T07:16:22;101068.34;;;2.56;95.03
41250;BME280;26984;59.928;30.306;2022-12-29T07:18:49;101061.66;;;2.52;95.02
41250;BME280;26984;59.928;30.306;2022-12-29T07:21:17;101065.31;;;2.51;95.38
41250;BME280;26984;59.928;30.306;2022-12-29T07:23:44;101067.47;;;2.47;95.48
41250;BME280;26984;59.928;30.306;2022-12-29T07:29:45;101082.41;;;2.48;97.15
41250;BME280;26984;59.928;30.306;2022-12-29T07:32:12;101084.31;;;2.56;97.24
41250;BME280;26984;59.928;30.306;2022-12-29T07:34:45;101079.00;;;2.56;96.65
41250;BME280;26984;59.928;30.306;2022-12-29T07:37:16;101083.41;;;2.47;97.91
41250;BME280;26984;59.928;30.306;2022-12-29T07:39:43;101080.97;;;2.54;97.82
41250;BME280;26984;59.928;30.306;2022-12-29T07:42:11;101086.22;;;2.63;97.33
41250;BME280;26984;59.928;30.306;2022-12-29T07:44:44;101100.78;;;2.59;97.15
41250;BME280;26984;59.928;30.306;2022-12-29T07:47:16;101096.94;;;2.54;98.02
41250;BME280;26984;59.928;30.306;2022-12-29T07:49:43;101103.78;;;2.56;97.90
41250;BME280;26984;59.928;30.306;2022-12-29T07:52:10;101097.69;;;2.64;97.84
41250;BME280;26984;59.928;30.306;2022-12-29T07:54:38;101099.88;;;2.69;98.30
41250;BME280;26984;59.928;30.306;2022-12-29T07:57:05;101097.84;;;2.62;98.45
41250;BME280;26984;59.928;30.306;2022-12-29T07:59:33;101093.88;;;2.67;98.81
41250;BME280;26984;59.928;30.306;2022-12-29T08:02:02;101075.34;;;2.75;98.30
41250;BME280;26984;59.928;30.306;2022-12-29T08:04:29;101072.59;;;2.67;98.21
41250;BME280;26984;59.928;30.306;2022-12-29T08:06:56;101080.75;;;2.65;98.43
41250;BME280;26984;59.928;30.306;2022-12-29T08:09:24;101073.75;;;2.64;98.69
41250;BME280;26984;59.928;30.306;2022-12-29T08:11:51;101078.03;;;2.57;98.75
41250;BME280;26984;59.928;30.306;2022-12-29T08:14:18;101080.97;;;2.54;100.00
41250;BME280;26984;59.928;30.306;2022-12-29T08:16:46;101079.16;;;2.54;100.00
41250;BME280;26984;59.928;30.306;2022-12-29T08:19:15;101073.84;;;2.54;100.00
41250;BME280;26984;59.928;30.306;2022-12-29T08:21:42;101079.75;;;2.48;100.00
41250;BME280;26984;59.928;30.306;2022-12-29T08:24:09;101077.72;;;2.42;100.00
41250;BME280;26984;59.928;30.306;2022-12-29T08:26:37;101067.69;;;2.36;100.00
41250;BME280;26984;59.928;30.306;2022-12-29T08:29:04;101074.91;;;2.26;100.00
41250;BME280;26984;59.928;30.306;2022-12-29T08:31:32;101077.31;;;2.19;100.00
41250;BME280;26984;59.928;30.306;2022-12-29T08:33:59;101071.63;;;2.14;100.00
41250;BME280;26984;59.928;30.306;2022-12-29T08:36:30;101075.19;;;2.05;100.00
41250;BME280;26984;59.928;30.306;2022-12-29T08:38:58;101068.34;;;2.02;100.00
41250;BME280;26984;59.928;30.306;2022-12-29T08:41:25;101072.75;;;2.11;100.00
41250;BME280;26984;59.928;30.306;2022-12-29T08:43:52;101073.06;;;2.08;100.00
41250;BME280;26984;59.928;30.306;2022-12-29T08:46:20;101075.72;;;2.08;100.00
41250;BME280;26984;59.928;30.306;2022-12-29T08:48:47;101076.13;;;2.13;100.00
41250;BME280;26984;59.928;30.306;2022-12-29T08:51:14;101073.47;;;2.13;100.00
41250;BME280;26984;59.928;30.306;2022-12-29T08:53:44;101076.72;;;2.25;100.00
41250;BME280;26984;59.928;30.306;2022-12-29T08:56:11;101072.84;;;2.20;100.00
41250;BME280;26984;59.928;30.306;2022-12-29T08:58:46;101066.38;;;2.04;100.00
41250;BME280;26984;59.928;30.306;2022-12-29T09:01:13;101073.81;;;2.01;100.00
41250;BME280;26984;59.928;30.306;2022-12-29T09:03:41;101081.03;;;2.08;100.00
41250;BME280;26984;59.928;30.306;2022-12-29T09:06:08;101082.53;;;1.93;100.00
41250;BME280;26984;59.928;30.306;2022-12-29T09:08:36;101086.63;;;1.87;100.00
41250;BME280;26984;59.928;30.306;2022-12-29T09:11:09;101094.88;;;1.84;100.00
41250;BME280;26984;59.928;30.306;2022-12-29T09:13:36;101092.00;;;1.96;100.00
41250;BME280;26984;59.928;30.306;2022-12-29T09:16:04;101087.84;;;1.93;100.00
41250;BME280;26984;59.928;30.306;2022-12-29T09:18:33;101084.03;;;1.96;100.00
41250;BME280;26984;59.928;30.306;2022-12-29T09:21:03;101093.72;;;1.97;100.00
41250;BME280;26984;59.928;30.306;2022-12-29T09:23:34;101100.53;;;1.99;100.00
41250;BME280;26984;59.928;30.306;2022-12-29T09:26:05;101098.25;;;1.86;100.00
41250;BME280;26984;59.928;30.306;2022-12-29T09:28:35;101094.22;;;1.82;100.00
41250;BME280;26984;59.928;30.306;2022-12-29T09:31:03;101095.38;;;1.70;100.00
41250;BME280;26984;59.928;30.306;2022-12-29T09:33:30;101102.88;;;1.57;100.00
41250;BME280;26984;59.928;30.306;2022-12-29T09:36:00;101093.19;;;1.56;100.00
41250;BME280;26984;59.928;30.306;2022-12-29T09:42:04;101097.22;;;1.60;100.00
41250;BME280;26984;59.928;30.306;2022-12-29T09:44:45;101096.94;;;1.63;100.00
41250;BME280;26984;59.928;30.306;2022-12-29T09:47:40;101087.53;;;1.41;100.00
41250;BME280;26984;59.928;30.306;2022-12-29T09:50:11;101080.69;;;1.38;100.00
41250;BME280;26984;59.928;30.306;2022-12-29T09:52:46;101087.19;;;1.26;100.00
41250;BME280;26984;59.928;30.306;2022-12-29T09:55:16;101086.47;;;1.24;100.00
41250;BME280;26984;59.928;30.306;2022-12-29T09:57:45;101086.06;;;1.29;100.00
41250;BME280;26984;59.928;30.306;2022-12-29T10:00:16;101094.88;;;1.10;100.00
41250;BME280;26984;59.928;30.306;2022-12-29T10:02:44;101091.13;;;1.03;100.00
41250;BME280;26984;59.928;30.306;2022-12-29T10:07:59;101087.91;;;1.09;100.00
41250;BME280;26984;59.928;30.306;2022-12-29T10:10:34;101084.00;;;1.13;100.00
41250;BME280;26984;59.928;30.306;2022-12-29T10:13:07;101083.72;;;1.16;100.00
41250;BME280;26984;59.928;30.306;2022-12-29T10:15:43;101081.72;;;1.28;100.00
41250;BME280;26984;59.928;30.306;2022-12-29T10:18:22;101087.34;;;1.25;100.00
41250;BME280;26984;59.928;30.306;2022-12-29T10:20:56;101097.09;;;1.24;100.00
41250;BME280;26984;59.928;30.306;2022-12-29T10:23:27;101092.03;;;1.31;100.00
41250;BME280;26984;59.928;30.306;2022-12-29T10:25:56;101086.09;;;1.09;100.00
41250;BME280;26984;59.928;30.306;2022-12-29T10:28:24;101090.59;;;0.99;100.00
41250;BME280;26984;59.928;30.306;2022-12-29T10:30:59;101088.94;;;0.88;100.00
41250;BME280;26984;59.928;30.306;2022-12-29T10:33:31;101081.25;;;0.85;100.00
41250;BME280;26984;59.928;30.306;2022-12-29T10:36:02;101086.16;;;0.90;100.00
41250;BME280;26984;59.928;30.306;2022-12-29T10:38:30;101077.63;;;0.86;100.00
41250;BME280;26984;59.928;30.306;2022-12-29T10:41:04;101082.63;;;0.99;100.00
41250;BME280;26984;59.928;30.306;2022-12-29T10:43:34;101075.66;;;0.88;100.00
41250;BME280;26984;59.928;30.306;2022-12-29T10:46:07;101087.38;;;0.95;100.00
41250;BME280;26984;59.928;30.306;2022-12-29T10:48:37;101080.03;;;0.80;100.00
41250;BME280;26984;59.928;30.306;2022-12-29T10:51:04;101084.06;;;0.84;100.00
41250;BME280;26984;59.928;30.306;2022-12-29T10:53:35;101079.47;;;0.86;100.00
41250;BME280;26984;59.928;30.306;2022-12-29T10:56:09;101073.16;;;0.87;100.00
41250;BME280;26984;59.928;30.306;2022-12-29T10:58:41;101079.59;;;0.84;100.00
41250;BME280;26984;59.928;30.306;2022-12-29T11:01:11;101082.66;;;0.89;100.00
41250;BME280;26984;59.928;30.306;2022-12-29T11:03:46;101081.56;;;0.82;100.00
41250;BME280;26984;59.928;30.306;2022-12-29T11:06:17;101072.78;;;0.72;100.00
41250;BME280;26984;59.928;30.306;2022-12-29T11:08:48;101073.19;;;0.67;100.00
41250;BME280;26984;59.928;30.306;2022-12-29T11:11:22;101067.19;;;0.65;100.00
41250;BME280;26984;59.928;30.306;2022-12-29T11:13:50;101068.97;;;0.75;100.00
41250;BME280;26984;59.928;30.306;2022-12-29T11:16:28;101072.06;;;0.70;100.00
41250;BME280;26984;59.928;30.306;2022-12-29T11:18:57;101074.88;;;0.68;100.00
41250;BME280;26984;59.928;30.306;2022-12-29T11:21:26;101074.88;;;0.68;100.00
41250;BME280;26984;59.928;30.306;2022-12-29T11:23:57;101078.09;;;0.72;100.00
41250;BME280;26984;59.928;30.306;2022-12-29T11:26:26;101079.75;;;0.83;100.00
41250;BME280;26984;59.928;30.306;2022-12-29T11:31:50;101079.59;;;0.75;100.00
41250;BME280;26984;59.928;30.306;2022-12-29T11:34:18;101070.69;;;0.76;100.00
41250;BME280;26984;59.928;30.306;2022-12-29T11:36:46;101067.47;;;0.72;100.00
41250;BME280;26984;59.928;30.306;2022-12-29T11:42:02;101064.97;;;0.51;100.00
41250;BME280;26984;59.928;30.306;2022-12-29T11:44:35;101056.47;;;0.57;100.00
41250;BME280;26984;59.928;30.306;2022-12-29T11:47:05;101061.34;;;0.52;100.00
41250;BME280;26984;59.928;30.306;2022-12-29T11:49:37;101059.13;;;0.57;100.00
41250;BME280;26984;59.928;30.306;2022-12-29T11:52:07;101063.16;;;0.52;100.00
41250;BME280;26984;59.928;30.306;2022-12-29T11:54:36;101055.34;;;0.50;100.00
41250;BME280;26984;59.928;30.306;2022-12-29T11:57:11;101057.69;;;0.53;100.00
41250;BME280;26984;59.928;30.306;2022-12-29T11:59:42;101047.53;;;0.58;100.00
41250;BME280;26984;59.928;30.306;2022-12-29T12:02:17;101057.84;;;0.52;100.00
41250;BME280;26984;59.928;30.306;2022-12-29T12:04:47;101058.25;;;0.57;100.00
41250;BME280;26984;59.928;30.306;2022-12-29T12:07:19;101054.66;;;0.58;100.00
41250;BME280;26984;59.928;30.306;2022-12-29T12:09:49;101055.47;;;0.58;100.00
41250;BME280;26984;59.928;30.306;2022-12-29T12:12:20;101057.31;;;0.58;100.00
41250;BME280;26984;59.928;30.306;2022-12-29T12:14:51;101062.88;;;0.55;100.00
41250;BME280;26984;59.928;30.306;2022-12-29T12:17:37;101046.81;;;0.56;100.00
41250;BME280;26984;59.928;30.306;2022-12-29T12:20:13;101052.28;;;0.45;100.00
41250;BME280;26984;59.928;30.306;2022-12-29T12:22:45;101047.41;;;0.40;100.00
41250;BME280;26984;59.928;30.306;2022-12-29T12:25:17;101054.94;;;0.45;100.00
41250;BME280;26984;59.928;30.306;2022-12-29T12:27:48;101048.78;;;0.35;100.00
41250;BME280;26984;59.928;30.306;2022-12-29T12:30:17;101052.72;;;0.40;100.00
41250;BME280;26984;59.928;30.306;2022-12-29T12:32:48;101051.72;;;0.32;100.00
41250;BME280;26984;59.928;30.306;2022-12-29T12:36:04;101050.91;;;0.21;100.00
41250;BME280;26984;59.928;30.306;2022-12-29T12:38:37;101046.72;;;0.29;100.00
41250;BME280;26984;59.928;30.306;2022-12-29T12:41:08;101033.16;;;0.32;100.00
41250;BME280;26984;59.928;30.306;2022-12-29T12:43:44;101044.03;;;0.38;100.00
41250;BME280;26984;59.928;30.306;2022-12-29T12:49:02;101036.66;;;0.32;100.00
41250;BME280;26984;59.928;30.306;2022-12-29T12:51:40;101033.44;;;0.38;100.00
41250;BME280;26984;59.928;30.306;2022-12-29T12:54:14;101030.38;;;0.33;100.00
41250;BME280;26984;59.928;30.306;2022-12-29T12:56:50;101039.03;;;0.26;100.00
41250;BME280;26984;59.928;30.306;2022-12-29T12:59:28;101040.00;;;0.24;100.00
41250;BME280;26984;59.928;30.306;2022-12-29T13:01:59;101029.69;;;0.21;100.00
41250;BME280;26984;59.928;30.306;2022-12-29T13:04:32;101034.13;;;0.21;100.00
41250;BME280;26984;59.928;30.306;2022-12-29T13:07:05;101030.94;;;0.27;100.00
41250;BME280;26984;59.928;30.306;2022-12-29T13:09:43;101032.22;;;0.33;100.00
41250;BME280;26984;59.928;30.306;2022-12-29T13:12:18;101023.41;;;0.32;100.00
41250;BME280;26984;59.928;30.306;2022-12-29T13:14:52;101026.75;;;0.44;100.00
41250;BME280;26984;59.928;30.306;2022-12-29T13:17:25;101034.44;;;0.47;100.00
41250;BME280;26984;59.928;30.306;2022-12-29T13:19:57;101029.69;;;0.41;100.00
41250;BME280;26984;59.928;30.306;2022-12-29T13:22:29;101022.72;;;0.30;100.00
41250;BME280;26984;59.928;30.306;2022-12-29T13:25:02;101023.69;;;0.29;100.00
41250;BME280;26984;59.928;30.306;2022-12-29T13:27:39;101026.91;;;0.33;100.00